Veblen, South Dakota
Current Conditions -  °F | °C
As of 2:55 PM on Tuesday 25 Nov 2014 (Local Time) from KGWR Reporting Station
Clear Clear  
Wind Chill: 24°   Ceiling: Unl
Heat Index: 32°   Visibility: 10mi
Dew Point: 25°   Wind: 10mph
Humidity: 75%   Direction: 130°SE
Pressure: 29.86"   Gusts: NA
Location:  45.86°N, 97.29°W
Report Text: KGWR 252055Z AUTO 13009KT 10SM CLR 00/M04 A2986 RMK A01 P000
Loading
Personal Weather Stations






























Interactive Weather Map New forecast layout! Learn more

10-Day Weather Forecast

Advertisements
Track Severe Weather on mobile